sensor_id;sensor_type;location;lat;lon;timestamp;P1;durP1;ratioP1;P2;durP2;ratioP2
41099;SDS011;26844;53.686;-6.346;2023-01-15T00:01:33;260.88;;;243.02;;
41099;SDS011;26844;53.686;-6.346;2023-01-15T00:03:59;236.52;;;218.10;;
41099;SDS011;26844;53.686;-6.346;2023-01-15T00:06:26;209.00;;;196.23;;
41099;SDS011;26844;53.686;-6.346;2023-01-15T00:08:52;520.50;;;465.80;;
41099;SDS011;26844;53.686;-6.346;2023-01-15T00:11:17;314.10;;;287.52;;
41099;SDS011;26844;53.686;-6.346;2023-01-15T00:13:43;279.23;;;256.15;;
41099;SDS011;26844;53.686;-6.346;2023-01-15T00:18:39;346.73;;;317.85;;
41099;SDS011;26844;53.686;-6.346;2023-01-15T00:21:06;246.85;;;226.48;;
41099;SDS011;26844;53.686;-6.346;2023-01-15T00:23:32;199.15;;;183.30;;
41099;SDS011;26844;53.686;-6.346;2023-01-15T00:26:18;167.13;;;156.77;;
41099;SDS011;26844;53.686;-6.346;2023-01-15T00:29:02;374.27;;;338.40;;
41099;SDS011;26844;53.686;-6.346;2023-01-15T00:31:27;169.07;;;159.48;;
41099;SDS011;26844;53.686;-6.346;2023-01-15T00:33:52;299.42;;;272.17;;
41099;SDS011;26844;53.686;-6.346;2023-01-15T00:36:21;162.20;;;152.05;;
41099;SDS011;26844;53.686;-6.346;2023-01-15T00:38:46;318.33;;;288.67;;
41099;SDS011;26844;53.686;-6.346;2023-01-15T00:41:11;242.60;;;227.38;;
41099;SDS011;26844;53.686;-6.346;2023-01-15T00:43:37;271.15;;;249.77;;
41099;SDS011;26844;53.686;-6.346;2023-01-15T00:46:02;202.60;;;191.27;;
41099;SDS011;26844;53.686;-6.346;2023-01-15T00:48:29;359.70;;;329.98;;
41099;SDS011;26844;53.686;-6.346;2023-01-15T00:50:54;388.38;;;352.92;;
41099;SDS011;26844;53.686;-6.346;2023-01-15T00:53:20;281.80;;;263.83;;
41099;SDS011;26844;53.686;-6.346;2023-01-15T00:55:45;264.92;;;243.52;;
41099;SDS011;26844;53.686;-6.346;2023-01-15T00:58:10;353.45;;;323.33;;
41099;SDS011;26844;53.686;-6.346;2023-01-15T01:00:35;200.88;;;187.98;;
41099;SDS011;26844;53.686;-6.346;2023-01-15T01:03:01;186.98;;;173.20;;
41099;SDS011;26844;53.686;-6.346;2023-01-15T01:05:26;209.55;;;194.98;;
41099;SDS011;26844;53.686;-6.346;2023-01-15T01:07:51;144.85;;;137.18;;
41099;SDS011;26844;53.686;-6.346;2023-01-15T01:10:16;190.57;;;178.35;;
41099;SDS011;26844;53.686;-6.346;2023-01-15T01:12:42;112.25;;;106.65;;
41099;SDS011;26844;53.686;-6.346;2023-01-15T01:15:07;179.63;;;167.70;;
41099;SDS011;26844;53.686;-6.346;2023-01-15T01:17:35;149.85;;;141.30;;
41099;SDS011;26844;53.686;-6.346;2023-01-15T01:20:00;513.90;;;454.05;;
41099;SDS011;26844;53.686;-6.346;2023-01-15T01:22:25;218.77;;;205.60;;
41099;SDS011;26844;53.686;-6.346;2023-01-15T01:24:51;314.30;;;285.92;;
41099;SDS011;26844;53.686;-6.346;2023-01-15T01:27:16;504.83;;;426.45;;
41099;SDS011;26844;53.686;-6.346;2023-01-15T01:29:43;161.50;;;152.95;;
41099;SDS011;26844;53.686;-6.346;2023-01-15T01:32:08;247.65;;;228.68;;
41099;SDS011;26844;53.686;-6.346;2023-01-15T01:34:33;186.10;;;174.57;;
41099;SDS011;26844;53.686;-6.346;2023-01-15T01:36:59;236.55;;;217.93;;
41099;SDS011;26844;53.686;-6.346;2023-01-15T01:39:24;269.05;;;244.02;;
41099;SDS011;26844;53.686;-6.346;2023-01-15T01:41:49;445.88;;;401.77;;
41099;SDS011;26844;53.686;-6.346;2023-01-15T01:46:52;230.70;;;211.55;;
41099;SDS011;26844;53.686;-6.346;2023-01-15T01:49:17;156.60;;;148.10;;
41099;SDS011;26844;53.686;-6.346;2023-01-15T01:51:44;228.30;;;212.25;;
41099;SDS011;26844;53.686;-6.346;2023-01-15T01:54:12;331.77;;;299.92;;
41099;SDS011;26844;53.686;-6.346;2023-01-15T01:56:37;511.08;;;441.00;;
41099;SDS011;26844;53.686;-6.346;2023-01-15T01:59:03;178.13;;;166.95;;
41099;SDS011;26844;53.686;-6.346;2023-01-15T02:01:29;137.50;;;129.30;;
41099;SDS011;26844;53.686;-6.346;2023-01-15T02:03:55;301.38;;;276.00;;
41099;SDS011;26844;53.686;-6.346;2023-01-15T02:06:21;415.17;;;373.83;;
41099;SDS011;26844;53.686;-6.346;2023-01-15T02:08:47;245.05;;;229.00;;
41099;SDS011;26844;53.686;-6.346;2023-01-15T02:11:18;455.08;;;409.20;;
41099;SDS011;26844;53.686;-6.346;2023-01-15T02:13:46;381.42;;;342.55;;
41099;SDS011;26844;53.686;-6.346;2023-01-15T02:16:18;374.92;;;332.92;;
41099;SDS011;26844;53.686;-6.346;2023-01-15T02:18:59;500.00;;;449.00;;
41099;SDS011;26844;53.686;-6.346;2023-01-15T02:29:26;304.15;;;277.42;;
41099;SDS011;26844;53.686;-6.346;2023-01-15T02:31:53;273.00;;;250.55;;
41099;SDS011;26844;53.686;-6.346;2023-01-15T02:34:20;300.45;;;274.65;;
41099;SDS011;26844;53.686;-6.346;2023-01-15T02:36:49;319.05;;;291.42;;
41099;SDS011;26844;53.686;-6.346;2023-01-15T02:39:15;428.92;;;388.73;;
41099;SDS011;26844;53.686;-6.346;2023-01-15T02:41:43;232.93;;;217.77;;
41099;SDS011;26844;53.686;-6.346;2023-01-15T02:44:09;235.15;;;217.40;;
41099;SDS011;26844;53.686;-6.346;2023-01-15T02:46:37;197.65;;;186.52;;
41099;SDS011;26844;53.686;-6.346;2023-01-15T02:49:04;333.13;;;302.15;;
41099;SDS011;26844;53.686;-6.346;2023-01-15T02:51:33;241.02;;;221.57;;
41099;SDS011;26844;53.686;-6.346;2023-01-15T02:54:00;311.20;;;285.00;;
41099;SDS011;26844;53.686;-6.346;2023-01-15T02:56:28;246.07;;;226.13;;
41099;SDS011;26844;53.686;-6.346;2023-01-15T02:58:55;226.15;;;209.95;;
41099;SDS011;26844;53.686;-6.346;2023-01-15T03:01:23;218.43;;;204.75;;
41099;SDS011;26844;53.686;-6.346;2023-01-15T03:06:26;253.95;;;234.13;;
41099;SDS011;26844;53.686;-6.346;2023-01-15T03:08:56;165.02;;;155.10;;
41099;SDS011;26844;53.686;-6.346;2023-01-15T03:11:22;267.55;;;246.18;;
41099;SDS011;26844;53.686;-6.346;2023-01-15T03:21:25;188.05;;;177.02;;
41099;SDS011;26844;53.686;-6.346;2023-01-15T03:23:52;362.35;;;332.50;;
41099;SDS011;26844;53.686;-6.346;2023-01-15T03:26:18;194.45;;;182.27;;
41099;SDS011;26844;53.686;-6.346;2023-01-15T03:28:44;191.18;;;179.18;;
41099;SDS011;26844;53.686;-6.346;2023-01-15T03:31:10;224.70;;;205.82;;
41099;SDS011;26844;53.686;-6.346;2023-01-15T03:33:35;212.48;;;197.90;;
41099;SDS011;26844;53.686;-6.346;2023-01-15T03:36:01;236.20;;;218.88;;
41099;SDS011;26844;53.686;-6.346;2023-01-15T03:38:30;464.80;;;417.08;;
41099;SDS011;26844;53.686;-6.346;2023-01-15T03:41:02;530.35;;;475.48;;
41099;SDS011;26844;53.686;-6.346;2023-01-15T03:46:06;297.70;;;273.10;;
41099;SDS011;26844;53.686;-6.346;2023-01-15T03:51:03;164.85;;;155.57;;
41099;SDS011;26844;53.686;-6.346;2023-01-15T03:53:33;199.20;;;185.65;;
41099;SDS011;26844;53.686;-6.346;2023-01-15T03:58:48;203.30;;;190.02;;
41099;SDS011;26844;53.686;-6.346;2023-01-15T04:01:14;309.80;;;284.40;;
41099;SDS011;26844;53.686;-6.346;2023-01-15T04:03:40;242.65;;;224.27;;
41099;SDS011;26844;53.686;-6.346;2023-01-15T04:06:06;153.90;;;145.82;;
41099;SDS011;26844;53.686;-6.346;2023-01-15T04:08:34;198.48;;;186.07;;
41099;SDS011;26844;53.686;-6.346;2023-01-15T04:11:01;266.52;;;244.02;;
41099;SDS011;26844;53.686;-6.346;2023-01-15T04:13:27;219.50;;;204.70;;
41099;SDS011;26844;53.686;-6.346;2023-01-15T04:15:53;291.60;;;266.73;;
41099;SDS011;26844;53.686;-6.346;2023-01-15T04:18:18;277.92;;;255.05;;
41099;SDS011;26844;53.686;-6.346;2023-01-15T04:20:44;219.70;;;204.48;;
41099;SDS011;26844;53.686;-6.346;2023-01-15T04:23:09;283.30;;;260.13;;
41099;SDS011;26844;53.686;-6.346;2023-01-15T04:25:34;191.00;;;179.85;;
41099;SDS011;26844;53.686;-6.346;2023-01-15T04:27:59;282.42;;;261.92;;
41099;SDS011;26844;53.686;-6.346;2023-01-15T04:30:25;253.45;;;236.07;;
41099;SDS011;26844;53.686;-6.346;2023-01-15T04:32:51;283.88;;;260.88;;
41099;SDS011;26844;53.686;-6.346;2023-01-15T04:35:16;262.00;;;243.27;;
41099;SDS011;26844;53.686;-6.346;2023-01-15T04:37:42;304.33;;;281.08;;
41099;SDS011;26844;53.686;-6.346;2023-01-15T04:40:07;262.00;;;246.02;;
41099;SDS011;26844;53.686;-6.346;2023-01-15T04:42:33;435.20;;;398.25;;
41099;SDS011;26844;53.686;-6.346;2023-01-15T04:45:17;187.35;;;174.50;;
41099;SDS011;26844;53.686;-6.346;2023-01-15T04:47:42;129.23;;;121.95;;
41099;SDS011;26844;53.686;-6.346;2023-01-15T04:50:07;221.18;;;206.85;;
41099;SDS011;26844;53.686;-6.346;2023-01-15T04:52:33;361.08;;;328.30;;
41099;SDS011;26844;53.686;-6.346;2023-01-15T04:54:58;201.60;;;189.25;;
41099;SDS011;26844;53.686;-6.346;2023-01-15T04:57:23;254.90;;;236.25;;
41099;SDS011;26844;53.686;-6.346;2023-01-15T04:59:49;254.40;;;232.85;;
41099;SDS011;26844;53.686;-6.346;2023-01-15T05:02:14;168.88;;;159.80;;
41099;SDS011;26844;53.686;-6.346;2023-01-15T05:04:39;143.82;;;135.07;;
41099;SDS011;26844;53.686;-6.346;2023-01-15T05:07:05;80.20;;;75.95;;
41099;SDS011;26844;53.686;-6.346;2023-01-15T05:09:30;131.65;;;122.80;;
41099;SDS011;26844;53.686;-6.346;2023-01-15T05:11:55;200.48;;;184.25;;
41099;SDS011;26844;53.686;-6.346;2023-01-15T05:14:21;108.78;;;102.05;;
41099;SDS011;26844;53.686;-6.346;2023-01-15T05:16:46;69.68;;;66.25;;
41099;SDS011;26844;53.686;-6.346;2023-01-15T05:19:11;184.15;;;172.77;;
41099;SDS011;26844;53.686;-6.346;2023-01-15T05:21:39;141.40;;;130.57;;
41099;SDS011;26844;53.686;-6.346;2023-01-15T05:24:05;198.00;;;181.25;;
41099;SDS011;26844;53.686;-6.346;2023-01-15T05:26:32;171.35;;;158.65;;
41099;SDS011;26844;53.686;-6.346;2023-01-15T05:28:58;71.38;;;66.72;;
41099;SDS011;26844;53.686;-6.346;2023-01-15T05:31:24;64.88;;;61.13;;
41099;SDS011;26844;53.686;-6.346;2023-01-15T05:33:49;84.43;;;79.03;;
41099;SDS011;26844;53.686;-6.346;2023-01-15T05:36:16;81.55;;;76.93;;
41099;SDS011;26844;53.686;-6.346;2023-01-15T05:38:42;91.22;;;86.55;;
41099;SDS011;26844;53.686;-6.346;2023-01-15T05:41:08;203.40;;;190.07;;
41099;SDS011;26844;53.686;-6.346;2023-01-15T05:43:58;230.73;;;213.75;;
41099;SDS011;26844;53.686;-6.346;2023-01-15T05:46:23;168.93;;;156.77;;
41099;SDS011;26844;53.686;-6.346;2023-01-15T05:48:48;190.98;;;177.07;;
41099;SDS011;26844;53.686;-6.346;2023-01-15T05:51:14;160.60;;;149.75;;
41099;SDS011;26844;53.686;-6.346;2023-01-15T05:53:39;188.23;;;175.77;;
41099;SDS011;26844;53.686;-6.346;2023-01-15T05:56:05;168.25;;;157.15;;
41099;SDS011;26844;53.686;-6.346;2023-01-15T05:58:30;110.45;;;104.85;;
41099;SDS011;26844;53.686;-6.346;2023-01-15T06:00:55;313.92;;;287.88;;
41099;SDS011;26844;53.686;-6.346;2023-01-15T06:03:21;218.70;;;204.95;;
41099;SDS011;26844;53.686;-6.346;2023-01-15T06:05:50;274.55;;;257.55;;
41099;SDS011;26844;53.686;-6.346;2023-01-15T06:08:16;174.55;;;164.90;;
41099;SDS011;26844;53.686;-6.346;2023-01-15T06:10:43;282.98;;;264.30;;
41099;SDS011;26844;53.686;-6.346;2023-01-15T06:13:08;188.95;;;177.93;;
41099;SDS011;26844;53.686;-6.346;2023-01-15T06:15:33;243.95;;;227.07;;
41099;SDS011;26844;53.686;-6.346;2023-01-15T06:17:59;236.38;;;220.82;;
41099;SDS011;26844;53.686;-6.346;2023-01-15T06:20:24;197.50;;;185.13;;
41099;SDS011;26844;53.686;-6.346;2023-01-15T06:22:49;201.32;;;190.07;;
41099;SDS011;26844;53.686;-6.346;2023-01-15T06:25:14;123.50;;;116.90;;
41099;SDS011;26844;53.686;-6.346;2023-01-15T06:27:40;241.25;;;224.82;;
41099;SDS011;26844;53.686;-6.346;2023-01-15T06:30:08;173.68;;;164.55;;
41099;SDS011;26844;53.686;-6.346;2023-01-15T06:32:34;233.70;;;216.75;;
41099;SDS011;26844;53.686;-6.346;2023-01-15T06:34:59;309.33;;;288.73;;
41099;SDS011;26844;53.686;-6.346;2023-01-15T06:37:24;369.90;;;342.98;;
41099;SDS011;26844;53.686;-6.346;2023-01-15T06:39:49;164.48;;;156.13;;
41099;SDS011;26844;53.686;-6.346;2023-01-15T06:42:14;157.25;;;148.07;;
41099;SDS011;26844;53.686;-6.346;2023-01-15T06:44:58;196.43;;;184.45;;
41099;SDS011;26844;53.686;-6.346;2023-01-15T06:47:42;265.35;;;249.70;;
41099;SDS011;26844;53.686;-6.346;2023-01-15T06:50:08;114.88;;;109.47;;
41099;SDS011;26844;53.686;-6.346;2023-01-15T06:52:33;70.90;;;67.75;;
41099;SDS011;26844;53.686;-6.346;2023-01-15T06:54:58;189.85;;;179.20;;
41099;SDS011;26844;53.686;-6.346;2023-01-15T06:57:24;175.88;;;166.45;;
41099;SDS011;26844;53.686;-6.346;2023-01-15T06:59:49;138.15;;;131.05;;
41099;SDS011;26844;53.686;-6.346;2023-01-15T07:02:15;216.02;;;203.70;;
41099;SDS011;26844;53.686;-6.346;2023-01-15T07:04:42;278.05;;;259.00;;
41099;SDS011;26844;53.686;-6.346;2023-01-15T07:07:07;115.85;;;110.07;;
41099;SDS011;26844;53.686;-6.346;2023-01-15T07:09:32;185.20;;;175.75;;
41099;SDS011;26844;53.686;-6.346;2023-01-15T07:11:57;88.80;;;84.45;;
41099;SDS011;26844;53.686;-6.346;2023-01-15T07:14:24;320.95;;;299.08;;
41099;SDS011;26844;53.686;-6.346;2023-01-15T07:16:49;157.85;;;148.90;;
41099;SDS011;26844;53.686;-6.346;2023-01-15T07:19:15;101.90;;;97.20;;
41099;SDS011;26844;53.686;-6.346;2023-01-15T07:21:40;95.57;;;91.07;;
41099;SDS011;26844;53.686;-6.346;2023-01-15T07:24:06;125.80;;;119.78;;
41099;SDS011;26844;53.686;-6.346;2023-01-15T07:26:32;136.98;;;129.90;;
41099;SDS011;26844;53.686;-6.346;2023-01-15T07:28:57;106.28;;;100.93;;
41099;SDS011;26844;53.686;-6.346;2023-01-15T07:31:22;102.72;;;97.85;;
41099;SDS011;26844;53.686;-6.346;2023-01-15T07:33:47;230.57;;;217.95;;
41099;SDS011;26844;53.686;-6.346;2023-01-15T07:36:13;92.82;;;88.32;;
41099;SDS011;26844;53.686;-6.346;2023-01-15T07:38:38;96.50;;;91.70;;
41099;SDS011;26844;53.686;-6.346;2023-01-15T07:41:03;133.27;;;126.25;;
41099;SDS011;26844;53.686;-6.346;2023-01-15T07:43:47;213.38;;;200.13;;
41099;SDS011;26844;53.686;-6.346;2023-01-15T07:46:31;246.77;;;231.57;;
41099;SDS011;26844;53.686;-6.346;2023-01-15T07:49:15;173.07;;;164.02;;
41099;SDS011;26844;53.686;-6.346;2023-01-15T07:51:59;74.40;;;71.10;;
41099;SDS011;26844;53.686;-6.346;2023-01-15T07:54:24;161.88;;;153.50;;
41099;SDS011;26844;53.686;-6.346;2023-01-15T07:56:50;63.70;;;60.83;;
41099;SDS011;26844;53.686;-6.346;2023-01-15T07:59:16;104.47;;;99.13;;
41099;SDS011;26844;53.686;-6.346;2023-01-15T08:01:42;104.10;;;98.85;;
41099;SDS011;26844;53.686;-6.346;2023-01-15T08:04:07;99.97;;;94.88;;
41099;SDS011;26844;53.686;-6.346;2023-01-15T08:06:33;133.30;;;126.57;;
41099;SDS011;26844;53.686;-6.346;2023-01-15T08:08:59;94.55;;;89.95;;
41099;SDS011;26844;53.686;-6.346;2023-01-15T08:11:24;102.45;;;96.75;;
41099;SDS011;26844;53.686;-6.346;2023-01-15T08:14:08;83.53;;;79.28;;
41099;SDS011;26844;53.686;-6.346;2023-01-15T08:16:52;67.15;;;63.83;;
41099;SDS011;26844;53.686;-6.346;2023-01-15T08:19:18;82.40;;;78.40;;
41099;SDS011;26844;53.686;-6.346;2023-01-15T08:21:43;52.60;;;50.20;;
41099;SDS011;26844;53.686;-6.346;2023-01-15T08:24:08;74.22;;;70.63;;
41099;SDS011;26844;53.686;-6.346;2023-01-15T08:26:33;111.68;;;106.07;;
41099;SDS011;26844;53.686;-6.346;2023-01-15T08:28:59;111.93;;;106.70;;
41099;SDS011;26844;53.686;-6.346;2023-01-15T08:31:24;139.88;;;132.25;;
41099;SDS011;26844;53.686;-6.346;2023-01-15T08:33:49;167.35;;;158.32;;
41099;SDS011;26844;53.686;-6.346;2023-01-15T08:36:15;195.57;;;184.48;;
41099;SDS011;26844;53.686;-6.346;2023-01-15T08:38:41;166.38;;;158.02;;
41099;SDS011;26844;53.686;-6.346;2023-01-15T08:41:07;76.63;;;72.65;;
41099;SDS011;26844;53.686;-6.346;2023-01-15T08:43:33;88.10;;;83.82;;
41099;SDS011;26844;53.686;-6.346;2023-01-15T08:45:58;87.53;;;83.18;;
41099;SDS011;26844;53.686;-6.346;2023-01-15T08:48:24;73.55;;;70.15;;
41099;SDS011;26844;53.686;-6.346;2023-01-15T08:50:50;133.88;;;127.22;;
41099;SDS011;26844;53.686;-6.346;2023-01-15T08:53:15;92.22;;;87.60;;
41099;SDS011;26844;53.686;-6.346;2023-01-15T08:55:41;186.02;;;175.88;;
41099;SDS011;26844;53.686;-6.346;2023-01-15T08:58:06;112.45;;;106.68;;
41099;SDS011;26844;53.686;-6.346;2023-01-15T09:00:31;106.65;;;101.03;;
41099;SDS011;26844;53.686;-6.346;2023-01-15T09:02:57;71.13;;;67.72;;
41099;SDS011;26844;53.686;-6.346;2023-01-15T09:05:22;77.07;;;73.50;;
41099;SDS011;26844;53.686;-6.346;2023-01-15T09:07:47;62.25;;;59.17;;
41099;SDS011;26844;53.686;-6.346;2023-01-15T09:10:13;67.75;;;64.50;;
41099;SDS011;26844;53.686;-6.346;2023-01-15T09:12:38;102.40;;;97.55;;
41099;SDS011;26844;53.686;-6.346;2023-01-15T09:15:03;78.18;;;74.63;;
41099;SDS011;26844;53.686;-6.346;2023-01-15T09:17:29;143.50;;;136.02;;
41099;SDS011;26844;53.686;-6.346;2023-01-15T09:19:55;146.45;;;139.05;;
41099;SDS011;26844;53.686;-6.346;2023-01-15T09:22:20;149.68;;;141.98;;
41099;SDS011;26844;53.686;-6.346;2023-01-15T09:24:45;256.33;;;238.15;;
41099;SDS011;26844;53.686;-6.346;2023-01-15T09:27:11;120.68;;;114.68;;
41099;SDS011;26844;53.686;-6.346;2023-01-15T09:29:36;164.00;;;155.55;;
41099;SDS011;26844;53.686;-6.346;2023-01-15T09:32:01;136.70;;;130.13;;
41099;SDS011;26844;53.686;-6.346;2023-01-15T09:34:27;234.10;;;217.98;;
41099;SDS011;26844;53.686;-6.346;2023-01-15T09:36:52;158.95;;;150.82;;
41099;SDS011;26844;53.686;-6.346;2023-01-15T09:39:17;151.48;;;142.52;;
41099;SDS011;26844;53.686;-6.346;2023-01-15T09:47:17;142.73;;;134.95;;
41099;SDS011;26844;53.686;-6.346;2023-01-15T09:52:11;158.52;;;148.32;;
41099;SDS011;26844;53.686;-6.346;2023-01-15T09:57:12;103.30;;;98.30;;
41099;SDS011;26844;53.686;-6.346;2023-01-15T09:59:39;126.35;;;120.32;;
41099;SDS011;26844;53.686;-6.346;2023-01-15T10:04:42;152.75;;;145.38;;
41099;SDS011;26844;53.686;-6.346;2023-01-15T10:07:24;154.00;;;146.10;;
41099;SDS011;26844;53.686;-6.346;2023-01-15T10:09:56;134.63;;;127.78;;
41099;SDS011;26844;53.686;-6.346;2023-01-15T10:12:26;148.63;;;140.95;;
41099;SDS011;26844;53.686;-6.346;2023-01-15T10:17:27;138.32;;;131.85;;
41099;SDS011;26844;53.686;-6.346;2023-01-15T10:19:52;141.57;;;133.55;;
41099;SDS011;26844;53.686;-6.346;2023-01-15T10:22:22;112.50;;;107.07;;
41099;SDS011;26844;53.686;-6.346;2023-01-15T10:24:50;131.52;;;124.68;;
41099;SDS011;26844;53.686;-6.346;2023-01-15T10:27:23;123.63;;;117.18;;
41099;SDS011;26844;53.686;-6.346;2023-01-15T10:32:51;107.32;;;101.45;;
41099;SDS011;26844;53.686;-6.346;2023-01-15T10:37:55;69.38;;;66.18;;
41099;SDS011;26844;53.686;-6.346;2023-01-15T10:45:25;73.15;;;69.55;;
41099;SDS011;26844;53.686;-6.346;2023-01-15T10:47:56;65.78;;;62.78;;
41099;SDS011;26844;53.686;-6.346;2023-01-15T10:50:25;108.68;;;102.47;;
41099;SDS011;26844;53.686;-6.346;2023-01-15T10:55:39;76.75;;;72.80;;
41099;SDS011;26844;53.686;-6.346;2023-01-15T10:58:09;89.47;;;85.22;;
41099;SDS011;26844;53.686;-6.346;2023-01-15T11:00:36;96.03;;;91.13;;
41099;SDS011;26844;53.686;-6.346;2023-01-15T11:03:03;92.03;;;86.97;;
41099;SDS011;26844;53.686;-6.346;2023-01-15T11:05:38;103.05;;;98.03;;
41099;SDS011;26844;53.686;-6.346;2023-01-15T11:08:05;159.75;;;150.93;;
41099;SDS011;26844;53.686;-6.346;2023-01-15T11:10:31;150.18;;;141.88;;
41099;SDS011;26844;53.686;-6.346;2023-01-15T11:12:58;119.05;;;112.85;;
41099;SDS011;26844;53.686;-6.346;2023-01-15T11:15:46;180.18;;;168.55;;
41099;SDS011;26844;53.686;-6.346;2023-01-15T11:18:35;134.45;;;127.55;;
41099;SDS011;26844;53.686;-6.346;2023-01-15T11:21:21;232.95;;;215.95;;
41099;SDS011;26844;53.686;-6.346;2023-01-15T11:23:47;174.90;;;164.18;;
41099;SDS011;26844;53.686;-6.346;2023-01-15T11:26:16;163.20;;;153.98;;
41099;SDS011;26844;53.686;-6.346;2023-01-15T11:28:43;136.90;;;129.75;;
41099;SDS011;26844;53.686;-6.346;2023-01-15T11:31:11;107.68;;;102.47;;
41099;SDS011;26844;53.686;-6.346;2023-01-15T11:33:37;129.25;;;122.80;;
41099;SDS011;26844;53.686;-6.346;2023-01-15T11:36:04;127.22;;;120.32;;
41099;SDS011;26844;53.686;-6.346;2023-01-15T11:38:41;63.30;;;60.47;;
41099;SDS011;26844;53.686;-6.346;2023-01-15T11:41:21;108.57;;;103.43;;
41099;SDS011;26844;53.686;-6.346;2023-01-15T11:43:53;109.30;;;103.88;;
41099;SDS011;26844;53.686;-6.346;2023-01-15T11:46:37;102.90;;;98.03;;
41099;SDS011;26844;53.686;-6.346;2023-01-15T11:49:21;201.02;;;188.20;;
41099;SDS011;26844;53.686;-6.346;2023-01-15T11:52:07;112.07;;;106.70;;
41099;SDS011;26844;53.686;-6.346;2023-01-15T11:54:36;84.32;;;80.22;;
41099;SDS011;26844;53.686;-6.346;2023-01-15T11:57:02;114.82;;;109.18;;
41099;SDS011;26844;53.686;-6.346;2023-01-15T11:59:27;70.45;;;67.05;;
41099;SDS011;26844;53.686;-6.346;2023-01-15T12:01:57;68.93;;;65.53;;
41099;SDS011;26844;53.686;-6.346;2023-01-15T12:06:55;95.10;;;90.50;;
41099;SDS011;26844;53.686;-6.346;2023-01-15T12:12:01;126.63;;;119.78;;
41099;SDS011;26844;53.686;-6.346;2023-01-15T12:19:30;55.97;;;53.40;;
41099;SDS011;26844;53.686;-6.346;2023-01-15T12:27:11;131.88;;;125.07;;
41099;SDS011;26844;53.686;-6.346;2023-01-15T12:29:42;125.50;;;119.20;;
41099;SDS011;26844;53.686;-6.346;2023-01-15T12:32:18;87.43;;;83.28;;
41099;SDS011;26844;53.686;-6.346;2023-01-15T12:37:52;84.93;;;80.78;;
41099;SDS011;26844;53.686;-6.346;2023-01-15T12:42:41;102.90;;;97.75;;
41099;SDS011;26844;53.686;-6.346;2023-01-15T12:45:29;74.45;;;70.78;;
41099;SDS011;26844;53.686;-6.346;2023-01-15T12:52:49;106.43;;;101.20;;
41099;SDS011;26844;53.686;-6.346;2023-01-15T12:55:29;108.97;;;103.88;;
41099;SDS011;26844;53.686;-6.346;2023-01-15T12:57:56;136.73;;;130.27;;
41099;SDS011;26844;53.686;-6.346;2023-01-15T13:00:29;130.82;;;124.50;;
41099;SDS011;26844;53.686;-6.346;2023-01-15T13:03:02;130.45;;;124.10;;
41099;SDS011;26844;53.686;-6.346;2023-01-15T13:05:48;90.60;;;85.97;;
41099;SDS011;26844;53.686;-6.346;2023-01-15T13:10:43;57.90;;;54.92;;
41099;SDS011;26844;53.686;-6.346;2023-01-15T13:13:14;90.70;;;86.07;;
41099;SDS011;26844;53.686;-6.346;2023-01-15T13:15:41;96.90;;;91.95;;
41099;SDS011;26844;53.686;-6.346;2023-01-15T13:18:21;88.32;;;83.93;;
41099;SDS011;26844;53.686;-6.346;2023-01-15T13:20:48;97.85;;;92.47;;
41099;SDS011;26844;53.686;-6.346;2023-01-15T13:26:17;135.82;;;128.13;;
41099;SDS011;26844;53.686;-6.346;2023-01-15T13:28:58;104.28;;;99.30;;
41099;SDS011;26844;53.686;-6.346;2023-01-15T13:33:56;88.05;;;83.75;;
41099;SDS011;26844;53.686;-6.346;2023-01-15T13:36:36;106.97;;;102.07;;
41099;SDS011;26844;53.686;-6.346;2023-01-15T13:39:04;103.00;;;97.85;;
41099;SDS011;26844;53.686;-6.346;2023-01-15T13:41:31;102.50;;;97.63;;
41099;SDS011;26844;53.686;-6.346;2023-01-15T13:44:20;114.05;;;108.50;;
41099;SDS011;26844;53.686;-6.346;2023-01-15T13:47:02;82.80;;;79.07;;
41099;SDS011;26844;53.686;-6.346;2023-01-15T13:49:38;83.03;;;79.00;;
41099;SDS011;26844;53.686;-6.346;2023-01-15T13:52:04;106.15;;;101.13;;
41099;SDS011;26844;53.686;-6.346;2023-01-15T13:54:31;90.85;;;86.65;;
41099;SDS011;26844;53.686;-6.346;2023-01-15T13:57:08;80.22;;;76.65;;
41099;SDS011;26844;53.686;-6.346;2023-01-15T14:01:59;135.02;;;128.07;;
41099;SDS011;26844;53.686;-6.346;2023-01-15T14:04:35;102.00;;;96.97;;
41099;SDS011;26844;53.686;-6.346;2023-01-15T14:07:01;116.47;;;110.72;;
41099;SDS011;26844;53.686;-6.346;2023-01-15T14:09:27;99.03;;;94.45;;
41099;SDS011;26844;53.686;-6.346;2023-01-15T14:23:21;145.65;;;138.82;;
41099;SDS011;26844;53.686;-6.346;2023-01-15T14:30:46;103.53;;;98.40;;
41099;SDS011;26844;53.686;-6.346;2023-01-15T14:35:55;101.90;;;96.75;;
41099;SDS011;26844;53.686;-6.346;2023-01-15T14:38:21;86.63;;;82.60;;
41099;SDS011;26844;53.686;-6.346;2023-01-15T14:40:58;100.50;;;95.75;;
41099;SDS011;26844;53.686;-6.346;2023-01-15T14:43:23;99.13;;;94.57;;
41099;SDS011;26844;53.686;-6.346;2023-01-15T14:45:51;94.57;;;90.15;;
41099;SDS011;26844;53.686;-6.346;2023-01-15T14:50:45;75.90;;;72.28;;
41099;SDS011;26844;53.686;-6.346;2023-01-15T15:00:48;113.18;;;107.15;;
41099;SDS011;26844;53.686;-6.346;2023-01-15T15:03:16;72.80;;;69.20;;
41099;SDS011;26844;53.686;-6.346;2023-01-15T15:05:42;57.50;;;54.90;;
41099;SDS011;26844;53.686;-6.346;2023-01-15T15:08:10;57.17;;;54.42;;
41099;SDS011;26844;53.686;-6.346;2023-01-15T15:10:36;53.88;;;51.35;;
41099;SDS011;26844;53.686;-6.346;2023-01-15T15:21:17;68.65;;;65.45;;
41099;SDS011;26844;53.686;-6.346;2023-01-15T15:26:18;79.78;;;76.05;;
41099;SDS011;26844;53.686;-6.346;2023-01-15T15:29:01;172.20;;;164.48;;
41099;SDS011;26844;53.686;-6.346;2023-01-15T15:31:28;71.57;;;68.38;;
41099;SDS011;26844;53.686;-6.346;2023-01-15T15:33:55;67.00;;;64.03;;
41099;SDS011;26844;53.686;-6.346;2023-01-15T15:36:25;76.57;;;73.13;;
41099;SDS011;26844;53.686;-6.346;2023-01-15T15:38:52;75.82;;;72.25;;
41099;SDS011;26844;53.686;-6.346;2023-01-15T15:41:18;62.38;;;59.45;;
41099;SDS011;26844;53.686;-6.346;2023-01-15T15:44:03;55.45;;;53.05;;
41099;SDS011;26844;53.686;-6.346;2023-01-15T15:46:51;62.53;;;59.70;;
41099;SDS011;26844;53.686;-6.346;2023-01-15T15:49:38;77.55;;;74.13;;
41099;SDS011;26844;53.686;-6.346;2023-01-15T15:52:11;112.97;;;106.97;;
41099;SDS011;26844;53.686;-6.346;2023-01-15T15:54:37;62.00;;;59.25;;
41099;SDS011;26844;53.686;-6.346;2023-01-15T16:02:05;88.38;;;84.35;;
41099;SDS011;26844;53.686;-6.346;2023-01-15T16:04:31;68.00;;;64.78;;
41099;SDS011;26844;53.686;-6.346;2023-01-15T16:06:57;60.15;;;57.47;;
41099;SDS011;26844;53.686;-6.346;2023-01-15T16:09:22;75.82;;;72.25;;
41099;SDS011;26844;53.686;-6.346;2023-01-15T16:11:48;87.90;;;83.57;;
41099;SDS011;26844;53.686;-6.346;2023-01-15T16:14:14;58.47;;;55.83;;
41099;SDS011;26844;53.686;-6.346;2023-01-15T16:16:41;83.70;;;80.00;;
41099;SDS011;26844;53.686;-6.346;2023-01-15T16:19:08;78.13;;;74.55;;